sensor_id;sensor_type;location;lat;lon;timestamp;temperature;humidity
68609;SHT31;55581;46.718;7.690;2024-03-08T00:01:10;2.62;90.64
68609;SHT31;55581;46.718;7.690;2024-03-08T00:03:35;2.67;91.03
68609;SHT31;55581;46.718;7.690;2024-03-08T00:06:03;2.67;91.15
68609;SHT31;55581;46.718;7.690;2024-03-08T00:08:30;2.74;91.18
68609;SHT31;55581;46.718;7.690;2024-03-08T00:10:56;2.71;90.71
68609;SHT31;55581;46.718;7.690;2024-03-08T00:13:21;2.67;89.88
68609;SHT31;55581;46.718;7.690;2024-03-08T00:15:49;2.64;90.35
68609;SHT31;55581;46.718;7.690;2024-03-08T00:18:14;2.53;90.77
68609;SHT31;55581;46.718;7.690;2024-03-08T00:20:42;2.53;91.27
68609;SHT31;55581;46.718;7.690;2024-03-08T00:23:11;2.28;90.48
68609;SHT31;55581;46.718;7.690;2024-03-08T00:25:37;2.28;90.71
68609;SHT31;55581;46.718;7.690;2024-03-08T00:28:02;2.22;90.58
68609;SHT31;55581;46.718;7.690;2024-03-08T00:30:30;2.19;90.88
68609;SHT31;55581;46.718;7.690;2024-03-08T00:32:56;2.22;90.54
68609;SHT31;55581;46.718;7.690;2024-03-08T00:35:21;2.13;90.47
68609;SHT31;55581;46.718;7.690;2024-03-08T00:37:47;2.20;90.87
68609;SHT31;55581;46.718;7.690;2024-03-08T00:40:13;2.15;91.23
68609;SHT31;55581;46.718;7.690;2024-03-08T00:42:39;2.03;92.48
68609;SHT31;55581;46.718;7.690;2024-03-08T00:45:06;1.95;92.12
68609;SHT31;55581;46.718;7.690;2024-03-08T00:47:31;1.94;92.27
68609;SHT31;55581;46.718;7.690;2024-03-08T00:49:57;1.88;91.95
68609;SHT31;55581;46.718;7.690;2024-03-08T00:52:23;1.82;92.32
68609;SHT31;55581;46.718;7.690;2024-03-08T00:54:49;1.75;91.71
68609;SHT31;55581;46.718;7.690;2024-03-08T00:57:15;1.64;91.81
68609;SHT31;55581;46.718;7.690;2024-03-08T00:59:42;1.60;91.16
68609;SHT31;55581;46.718;7.690;2024-03-08T01:02:09;1.60;91.73
68609;SHT31;55581;46.718;7.690;2024-03-08T01:04:35;1.50;91.53
68609;SHT31;55581;46.718;7.690;2024-03-08T01:07:01;1.43;91.75
68609;SHT31;55581;46.718;7.690;2024-03-08T01:09:27;1.40;91.65
68609;SHT31;55581;46.718;7.690;2024-03-08T01:11:53;1.39;92.35
68609;SHT31;55581;46.718;7.690;2024-03-08T01:14:25;1.35;92.59
68609;SHT31;55581;46.718;7.690;2024-03-08T01:16:55;1.30;91.74
68609;SHT31;55581;46.718;7.690;2024-03-08T01:19:20;1.33;91.72
68609;SHT31;55581;46.718;7.690;2024-03-08T01:21:46;1.32;91.52
68609;SHT31;55581;46.718;7.690;2024-03-08T01:24:11;1.29;92.23
68609;SHT31;55581;46.718;7.690;2024-03-08T01:26:37;1.36;91.82
68609;SHT31;55581;46.718;7.690;2024-03-08T01:29:03;1.37;91.45
68609;SHT31;55581;46.718;7.690;2024-03-08T01:31:31;1.29;92.67
68609;SHT31;55581;46.718;7.690;2024-03-08T01:33:58;1.27;92.17
68609;SHT31;55581;46.718;7.690;2024-03-08T01:36:23;1.26;92.33
68609;SHT31;55581;46.718;7.690;2024-03-08T01:38:50;1.22;92.16
68609;SHT31;55581;46.718;7.690;2024-03-08T01:41:15;1.33;91.38
68609;SHT31;55581;46.718;7.690;2024-03-08T01:43:43;1.32;90.86
68609;SHT31;55581;46.718;7.690;2024-03-08T01:46:09;1.15;90.06
68609;SHT31;55581;46.718;7.690;2024-03-08T01:48:39;1.19;90.37
68609;SHT31;55581;46.718;7.690;2024-03-08T01:51:06;1.15;90.87
68609;SHT31;55581;46.718;7.690;2024-03-08T01:53:31;1.12;90.26
68609;SHT31;55581;46.718;7.690;2024-03-08T01:55:58;1.19;90.66
68609;SHT31;55581;46.718;7.690;2024-03-08T01:58:26;1.18;90.90
68609;SHT31;55581;46.718;7.690;2024-03-08T02:00:53;1.15;90.95
68609;SHT31;55581;46.718;7.690;2024-03-08T02:03:19;1.12;91.79
68609;SHT31;55581;46.718;7.690;2024-03-08T02:05:45;1.10;91.56
68609;SHT31;55581;46.718;7.690;2024-03-08T02:08:11;1.16;91.80
68609;SHT31;55581;46.718;7.690;2024-03-08T02:10:46;1.12;92.23
68609;SHT31;55581;46.718;7.690;2024-03-08T02:13:11;1.09;91.75
68609;SHT31;55581;46.718;7.690;2024-03-08T02:15:56;1.05;92.43
68609;SHT31;55581;46.718;7.690;2024-03-08T02:18:22;1.02;93.12
68609;SHT31;55581;46.718;7.690;2024-03-08T02:23:20;1.06;93.43
68609;SHT31;55581;46.718;7.690;2024-03-08T02:25:50;1.08;93.78
68609;SHT31;55581;46.718;7.690;2024-03-08T02:28:17;1.10;93.54
68609;SHT31;55581;46.718;7.690;2024-03-08T02:30:45;1.16;93.72
68609;SHT31;55581;46.718;7.690;2024-03-08T02:33:15;1.22;93.46
68609;SHT31;55581;46.718;7.690;2024-03-08T02:35:47;1.27;92.78
68609;SHT31;55581;46.718;7.690;2024-03-08T02:38:13;1.25;91.72
68609;SHT31;55581;46.718;7.690;2024-03-08T02:40:43;1.19;91.50
68609;SHT31;55581;46.718;7.690;2024-03-08T02:43:10;1.18;91.79
68609;SHT31;55581;46.718;7.690;2024-03-08T02:45:35;1.20;92.26
68609;SHT31;55581;46.718;7.690;2024-03-08T02:48:01;1.20;92.44
68609;SHT31;55581;46.718;7.690;2024-03-08T02:50:27;1.18;93.50
68609;SHT31;55581;46.718;7.690;2024-03-08T02:52:52;1.23;93.34
68609;SHT31;55581;46.718;7.690;2024-03-08T02:55:18;1.25;93.99
68609;SHT31;55581;46.718;7.690;2024-03-08T02:57:46;1.22;92.24
68609;SHT31;55581;46.718;7.690;2024-03-08T03:00:17;1.26;92.97
68609;SHT31;55581;46.718;7.690;2024-03-08T03:02:45;1.26;92.41
68609;SHT31;55581;46.718;7.690;2024-03-08T03:05:10;1.26;93.58
68609;SHT31;55581;46.718;7.690;2024-03-08T03:07:36;1.26;93.08
68609;SHT31;55581;46.718;7.690;2024-03-08T03:10:02;1.32;93.13
68609;SHT31;55581;46.718;7.690;2024-03-08T03:12:29;1.30;92.18
68609;SHT31;55581;46.718;7.690;2024-03-08T03:14:55;1.27;93.07
68609;SHT31;55581;46.718;7.690;2024-03-08T03:17:22;1.19;92.85
68609;SHT31;55581;46.718;7.690;2024-03-08T03:19:48;1.13;91.85
68609;SHT31;55581;46.718;7.690;2024-03-08T03:22:13;1.06;92.32
68609;SHT31;55581;46.718;7.690;2024-03-08T03:24:38;1.02;93.19
68609;SHT31;55581;46.718;7.690;2024-03-08T03:27:04;0.99;91.12
68609;SHT31;55581;46.718;7.690;2024-03-08T03:29:42;0.92;90.90
68609;SHT31;55581;46.718;7.690;2024-03-08T03:32:11;0.89;91.02
68609;SHT31;55581;46.718;7.690;2024-03-08T03:34:39;0.85;91.77
68609;SHT31;55581;46.718;7.690;2024-03-08T03:37:08;0.78;90.98
68609;SHT31;55581;46.718;7.690;2024-03-08T03:39:34;0.80;91.36
68609;SHT31;55581;46.718;7.690;2024-03-08T03:42:00;0.85;93.31
68609;SHT31;55581;46.718;7.690;2024-03-08T03:44:27;0.84;93.08
68609;SHT31;55581;46.718;7.690;2024-03-08T03:46:53;0.87;94.31
68609;SHT31;55581;46.718;7.690;2024-03-08T03:49:19;0.88;93.46
68609;SHT31;55581;46.718;7.690;2024-03-08T03:51:44;0.87;93.87
68609;SHT31;55581;46.718;7.690;2024-03-08T03:54:10;0.82;93.29
68609;SHT31;55581;46.718;7.690;2024-03-08T03:56:35;0.80;92.82
68609;SHT31;55581;46.718;7.690;2024-03-08T03:59:01;0.75;93.21
68609;SHT31;55581;46.718;7.690;2024-03-08T04:01:26;0.71;93.32
68609;SHT31;55581;46.718;7.690;2024-03-08T04:03:54;0.74;94.12
68609;SHT31;55581;46.718;7.690;2024-03-08T04:06:20;0.75;93.26
68609;SHT31;55581;46.718;7.690;2024-03-08T04:08:50;0.65;92.76
68609;SHT31;55581;46.718;7.690;2024-03-08T04:11:16;0.68;93.11
68609;SHT31;55581;46.718;7.690;2024-03-08T04:13:42;0.60;92.41
68609;SHT31;55581;46.718;7.690;2024-03-08T04:16:08;0.61;92.54
68609;SHT31;55581;46.718;7.690;2024-03-08T04:18:34;0.57;91.69
68609;SHT31;55581;46.718;7.690;2024-03-08T04:21:04;0.60;92.40
68609;SHT31;55581;46.718;7.690;2024-03-08T04:23:32;0.50;92.51
68609;SHT31;55581;46.718;7.690;2024-03-08T04:26:02;0.50;93.35
68609;SHT31;55581;46.718;7.690;2024-03-08T04:28:32;0.47;93.90
68609;SHT31;55581;46.718;7.690;2024-03-08T04:31:00;0.47;92.91
68609;SHT31;55581;46.718;7.690;2024-03-08T04:33:32;0.47;93.14
68609;SHT31;55581;46.718;7.690;2024-03-08T04:35:57;0.50;92.85
68609;SHT31;55581;46.718;7.690;2024-03-08T04:38:23;0.47;93.80
68609;SHT31;55581;46.718;7.690;2024-03-08T04:40:50;0.43;94.13
68609;SHT31;55581;46.718;7.690;2024-03-08T04:43:16;0.39;94.12
68609;SHT31;55581;46.718;7.690;2024-03-08T04:45:44;0.34;94.33
68609;SHT31;55581;46.718;7.690;2024-03-08T04:48:09;0.36;93.84
68609;SHT31;55581;46.718;7.690;2024-03-08T04:50:35;0.46;95.51
68609;SHT31;55581;46.718;7.690;2024-03-08T04:53:00;0.34;94.44
68609;SHT31;55581;46.718;7.690;2024-03-08T04:55:26;0.34;94.95
68609;SHT31;55581;46.718;7.690;2024-03-08T04:57:51;0.39;95.30
68609;SHT31;55581;46.718;7.690;2024-03-08T05:00:18;0.37;94.94
68609;SHT31;55581;46.718;7.690;2024-03-08T05:02:44;0.30;94.78
68609;SHT31;55581;46.718;7.690;2024-03-08T05:05:10;0.32;95.32
68609;SHT31;55581;46.718;7.690;2024-03-08T05:07:38;0.39;95.07
68609;SHT31;55581;46.718;7.690;2024-03-08T05:10:04;0.43;95.43
68609;SHT31;55581;46.718;7.690;2024-03-08T05:12:30;0.43;95.21
68609;SHT31;55581;46.718;7.690;2024-03-08T05:14:56;0.46;95.46
68609;SHT31;55581;46.718;7.690;2024-03-08T05:17:22;0.46;95.53
68609;SHT31;55581;46.718;7.690;2024-03-08T05:19:51;0.43;94.89
68609;SHT31;55581;46.718;7.690;2024-03-08T05:22:17;0.40;94.80
68609;SHT31;55581;46.718;7.690;2024-03-08T05:24:45;0.36;94.74
68609;SHT31;55581;46.718;7.690;2024-03-08T05:27:11;0.36;95.06
68609;SHT31;55581;46.718;7.690;2024-03-08T05:29:36;0.32;94.56
68609;SHT31;55581;46.718;7.690;2024-03-08T05:32:03;0.27;94.73
68609;SHT31;55581;46.718;7.690;2024-03-08T05:34:29;0.29;94.78
68609;SHT31;55581;46.718;7.690;2024-03-08T05:36:55;0.30;95.59
68609;SHT31;55581;46.718;7.690;2024-03-08T05:39:26;0.25;94.79
68609;SHT31;55581;46.718;7.690;2024-03-08T05:41:51;0.20;94.70
68609;SHT31;55581;46.718;7.690;2024-03-08T05:44:17;0.12;94.81
68609;SHT31;55581;46.718;7.690;2024-03-08T05:46:42;0.15;95.11
68609;SHT31;55581;46.718;7.690;2024-03-08T05:49:08;0.17;93.47
68609;SHT31;55581;46.718;7.690;2024-03-08T05:51:36;0.15;93.78
68609;SHT31;55581;46.718;7.690;2024-03-08T05:54:02;0.05;93.73
68609;SHT31;55581;46.718;7.690;2024-03-08T05:56:33;0.02;94.33
68609;SHT31;55581;46.718;7.690;2024-03-08T05:58:58;0.08;95.21
68609;SHT31;55581;46.718;7.690;2024-03-08T06:01:24;0.06;94.63
68609;SHT31;55581;46.718;7.690;2024-03-08T06:03:52;0.10;95.12
68609;SHT31;55581;46.718;7.690;2024-03-08T06:06:20;0.05;95.42
68609;SHT31;55581;46.718;7.690;2024-03-08T06:08:47;0.10;95.57
68609;SHT31;55581;46.718;7.690;2024-03-08T06:11:14;0.12;95.01
68609;SHT31;55581;46.718;7.690;2024-03-08T06:13:40;0.10;94.91
68609;SHT31;55581;46.718;7.690;2024-03-08T06:16:05;0.13;94.52
68609;SHT31;55581;46.718;7.690;2024-03-08T06:18:34;0.10;94.76
68609;SHT31;55581;46.718;7.690;2024-03-08T06:21:04;0.16;95.24
68609;SHT31;55581;46.718;7.690;2024-03-08T06:23:35;0.16;94.46
68609;SHT31;55581;46.718;7.690;2024-03-08T06:26:07;0.17;95.20
68609;SHT31;55581;46.718;7.690;2024-03-08T06:28:33;0.19;94.58
68609;SHT31;55581;46.718;7.690;2024-03-08T06:31:00;0.22;94.82
68609;SHT31;55581;46.718;7.690;2024-03-08T06:33:25;0.22;95.35
68609;SHT31;55581;46.718;7.690;2024-03-08T06:35:52;0.27;95.97
68609;SHT31;55581;46.718;7.690;2024-03-08T06:38:17;0.33;95.31
68609;SHT31;55581;46.718;7.690;2024-03-08T06:40:44;0.30;93.96
68609;SHT31;55581;46.718;7.690;2024-03-08T06:43:13;0.34;94.38
68609;SHT31;55581;46.718;7.690;2024-03-08T06:45:44;0.27;93.24
68609;SHT31;55581;46.718;7.690;2024-03-08T06:48:18;0.32;93.86
68609;SHT31;55581;46.718;7.690;2024-03-08T06:50:45;0.25;93.71
68609;SHT31;55581;46.718;7.690;2024-03-08T06:53:11;0.32;94.45
68609;SHT31;55581;46.718;7.690;2024-03-08T06:55:39;0.36;94.54
68609;SHT31;55581;46.718;7.690;2024-03-08T06:58:05;0.43;94.08
68609;SHT31;55581;46.718;7.690;2024-03-08T07:00:32;0.52;94.61
68609;SHT31;55581;46.718;7.690;2024-03-08T07:02:58;0.64;94.59
68609;SHT31;55581;46.718;7.690;2024-03-08T07:05:31;0.74;94.19
68609;SHT31;55581;46.718;7.690;2024-03-08T07:07:58;0.87;93.62
68609;SHT31;55581;46.718;7.690;2024-03-08T07:10:23;0.98;92.84
68609;SHT31;55581;46.718;7.690;2024-03-08T07:12:53;1.09;92.00
68609;SHT31;55581;46.718;7.690;2024-03-08T07:15:18;1.12;91.22
68609;SHT31;55581;46.718;7.690;2024-03-08T07:17:47;1.08;92.16
68609;SHT31;55581;46.718;7.690;2024-03-08T07:20:13;1.23;90.63
68609;SHT31;55581;46.718;7.690;2024-03-08T07:22:43;1.22;91.20
68609;SHT31;55581;46.718;7.690;2024-03-08T07:25:08;1.23;90.35
68609;SHT31;55581;46.718;7.690;2024-03-08T07:27:53;1.29;90.90
68609;SHT31;55581;46.718;7.690;2024-03-08T07:30:23;1.25;90.15
68609;SHT31;55581;46.718;7.690;2024-03-08T07:33:08;1.35;90.88
68609;SHT31;55581;46.718;7.690;2024-03-08T07:35:37;1.54;90.25
68609;SHT31;55581;46.718;7.690;2024-03-08T07:38:12;1.54;90.05
68609;SHT31;55581;46.718;7.690;2024-03-08T07:40:40;1.60;89.06
68609;SHT31;55581;46.718;7.690;2024-03-08T07:43:10;1.68;89.19
68609;SHT31;55581;46.718;7.690;2024-03-08T07:45:38;1.63;88.75
68609;SHT31;55581;46.718;7.690;2024-03-08T07:48:04;1.71;89.26
68609;SHT31;55581;46.718;7.690;2024-03-08T07:50:38;1.79;89.01
68609;SHT31;55581;46.718;7.690;2024-03-08T07:53:07;1.81;88.55
68609;SHT31;55581;46.718;7.690;2024-03-08T07:55:33;2.01;87.98
68609;SHT31;55581;46.718;7.690;2024-03-08T07:58:00;2.05;89.25
68609;SHT31;55581;46.718;7.690;2024-03-08T08:00:25;2.13;88.15
68609;SHT31;55581;46.718;7.690;2024-03-08T08:02:54;2.20;88.33
68609;SHT31;55581;46.718;7.690;2024-03-08T08:05:20;2.43;87.55
68609;SHT31;55581;46.718;7.690;2024-03-08T08:07:45;2.41;86.87
68609;SHT31;55581;46.718;7.690;2024-03-08T08:10:14;2.29;86.59
68609;SHT31;55581;46.718;7.690;2024-03-08T08:12:44;2.25;86.83
68609;SHT31;55581;46.718;7.690;2024-03-08T08:15:10;2.29;87.20
68609;SHT31;55581;46.718;7.690;2024-03-08T08:17:35;2.18;87.28
68609;SHT31;55581;46.718;7.690;2024-03-08T08:20:01;2.37;86.93
68609;SHT31;55581;46.718;7.690;2024-03-08T08:22:30;2.50;87.08
68609;SHT31;55581;46.718;7.690;2024-03-08T08:24:55;2.64;86.73
68609;SHT31;55581;46.718;7.690;2024-03-08T08:27:21;2.68;87.05
68609;SHT31;55581;46.718;7.690;2024-03-08T08:29:46;2.58;85.82
68609;SHT31;55581;46.718;7.690;2024-03-08T08:32:13;2.74;85.29
68609;SHT31;55581;46.718;7.690;2024-03-08T08:34:38;2.64;86.13
68609;SHT31;55581;46.718;7.690;2024-03-08T08:37:07;2.77;85.08
68609;SHT31;55581;46.718;7.690;2024-03-08T08:39:35;2.77;86.23
68609;SHT31;55581;46.718;7.690;2024-03-08T08:42:01;2.92;85.15
68609;SHT31;55581;46.718;7.690;2024-03-08T08:44:29;2.85;85.89
68609;SHT31;55581;46.718;7.690;2024-03-08T08:46:54;2.85;86.54
68609;SHT31;55581;46.718;7.690;2024-03-08T08:49:19;2.85;85.70
68609;SHT31;55581;46.718;7.690;2024-03-08T08:51:52;2.77;84.52
68609;SHT31;55581;46.718;7.690;2024-03-08T08:54:17;2.85;84.86
68609;SHT31;55581;46.718;7.690;2024-03-08T08:56:43;2.87;85.63
68609;SHT31;55581;46.718;7.690;2024-03-08T08:59:17;2.85;85.73
68609;SHT31;55581;46.718;7.690;2024-03-08T09:01:46;3.01;84.73
68609;SHT31;55581;46.718;7.690;2024-03-08T09:04:15;2.88;84.41
68609;SHT31;55581;46.718;7.690;2024-03-08T09:06:41;2.95;84.84
68609;SHT31;55581;46.718;7.690;2024-03-08T09:09:07;3.19;84.59
68609;SHT31;55581;46.718;7.690;2024-03-08T09:11:38;3.40;83.54
68609;SHT31;55581;46.718;7.690;2024-03-08T09:14:07;3.43;83.59
68609;SHT31;55581;46.718;7.690;2024-03-08T09:16:34;3.70;82.68
68609;SHT31;55581;46.718;7.690;2024-03-08T09:18:59;3.71;82.77
68609;SHT31;55581;46.718;7.690;2024-03-08T09:21:27;3.88;82.45
68609;SHT31;55581;46.718;7.690;2024-03-08T09:23:53;3.98;81.75
68609;SHT31;55581;46.718;7.690;2024-03-08T09:26:19;3.95;80.09
68609;SHT31;55581;46.718;7.690;2024-03-08T09:28:44;3.89;81.55
68609;SHT31;55581;46.718;7.690;2024-03-08T09:31:13;3.75;81.49
68609;SHT31;55581;46.718;7.690;2024-03-08T09:33:38;3.70;80.98
68609;SHT31;55581;46.718;7.690;2024-03-08T09:36:05;3.85;81.39
68609;SHT31;55581;46.718;7.690;2024-03-08T09:38:34;4.03;80.78
68609;SHT31;55581;46.718;7.690;2024-03-08T09:41:01;4.19;79.60
68609;SHT31;55581;46.718;7.690;2024-03-08T09:43:29;4.12;80.25
68609;SHT31;55581;46.718;7.690;2024-03-08T09:45:57;4.29;79.48
68609;SHT31;55581;46.718;7.690;2024-03-08T09:48:26;4.43;78.55
68609;SHT31;55581;46.718;7.690;2024-03-08T09:50:51;4.17;79.64
68609;SHT31;55581;46.718;7.690;2024-03-08T09:53:17;4.32;79.73
68609;SHT31;55581;46.718;7.690;2024-03-08T09:55:43;4.57;78.35
68609;SHT31;55581;46.718;7.690;2024-03-08T09:58:14;4.74;78.45
68609;SHT31;55581;46.718;7.690;2024-03-08T10:01:02;4.78;77.68
68609;SHT31;55581;46.718;7.690;2024-03-08T10:03:28;4.56;77.89
68609;SHT31;55581;46.718;7.690;2024-03-08T10:05:56;4.75;79.02
68609;SHT31;55581;46.718;7.690;2024-03-08T10:08:26;4.99;76.87
68609;SHT31;55581;46.718;7.690;2024-03-08T10:10:51;5.20;77.00
68609;SHT31;55581;46.718;7.690;2024-03-08T10:13:17;5.39;76.20
68609;SHT31;55581;46.718;7.690;2024-03-08T10:15:44;5.20;75.89
68609;SHT31;55581;46.718;7.690;2024-03-08T10:18:10;5.42;76.28
68609;SHT31;55581;46.718;7.690;2024-03-08T10:20:35;5.53;75.12
68609;SHT31;55581;46.718;7.690;2024-03-08T10:23:02;5.58;75.10
68609;SHT31;55581;46.718;7.690;2024-03-08T10:25:29;5.56;74.89
68609;SHT31;55581;46.718;7.690;2024-03-08T10:27:56;5.36;75.56
68609;SHT31;55581;46.718;7.690;2024-03-08T10:30:23;5.30;74.19
68609;SHT31;55581;46.718;7.690;2024-03-08T10:32:51;5.57;74.26
68609;SHT31;55581;46.718;7.690;2024-03-08T10:35:17;5.40;76.29
68609;SHT31;55581;46.718;7.690;2024-03-08T10:37:47;5.23;74.45
68609;SHT31;55581;46.718;7.690;2024-03-08T10:40:18;5.33;75.90
68609;SHT31;55581;46.718;7.690;2024-03-08T10:42:57;5.48;75.86
68609;SHT31;55581;46.718;7.690;2024-03-08T10:45:39;5.47;75.75
68609;SHT31;55581;46.718;7.690;2024-03-08T10:48:30;5.58;75.16
68609;SHT31;55581;46.718;7.690;2024-03-08T10:51:04;5.64;74.80
68609;SHT31;55581;46.718;7.690;2024-03-08T10:53:30;5.68;74.24
68609;SHT31;55581;46.718;7.690;2024-03-08T10:55:58;5.51;75.25
68609;SHT31;55581;46.718;7.690;2024-03-08T10:58:26;5.74;74.14
68609;SHT31;55581;46.718;7.690;2024-03-08T11:00:55;5.58;74.74
68609;SHT31;55581;46.718;7.690;2024-03-08T11:06:14;5.99;74.41
68609;SHT31;55581;46.718;7.690;2024-03-08T11:08:40;6.02;72.91
68609;SHT31;55581;46.718;7.690;2024-03-08T11:11:23;5.70;74.49
68609;SHT31;55581;46.718;7.690;2024-03-08T11:13:53;5.90;74.52
68609;SHT31;55581;46.718;7.690;2024-03-08T11:18:50;5.99;74.42
68609;SHT31;55581;46.718;7.690;2024-03-08T11:21:17;5.81;74.73
68609;SHT31;55581;46.718;7.690;2024-03-08T11:23:42;5.91;75.07
68609;SHT31;55581;46.718;7.690;2024-03-08T11:26:22;5.92;74.99
68609;SHT31;55581;46.718;7.690;2024-03-08T11:28:49;6.15;75.69
68609;SHT31;55581;46.718;7.690;2024-03-08T11:31:24;6.30;74.88
68609;SHT31;55581;46.718;7.690;2024-03-08T11:33:54;6.28;74.17
68609;SHT31;55581;46.718;7.690;2024-03-08T11:36:24;6.28;74.73
68609;SHT31;55581;46.718;7.690;2024-03-08T11:38:51;6.12;73.72
68609;SHT31;55581;46.718;7.690;2024-03-08T11:41:22;5.99;75.43
68609;SHT31;55581;46.718;7.690;2024-03-08T11:43:49;5.90;74.23
68609;SHT31;55581;46.718;7.690;2024-03-08T11:46:16;5.71;75.71
68609;SHT31;55581;46.718;7.690;2024-03-08T11:48:47;5.73;75.27
68609;SHT31;55581;46.718;7.690;2024-03-08T11:51:14;5.87;76.01
68609;SHT31;55581;46.718;7.690;2024-03-08T11:53:40;6.01;76.01
68609;SHT31;55581;46.718;7.690;2024-03-08T11:56:13;5.78;74.38
68609;SHT31;55581;46.718;7.690;2024-03-08T11:58:40;6.09;75.31
68609;SHT31;55581;46.718;7.690;2024-03-08T12:01:07;6.09;75.03
68609;SHT31;55581;46.718;7.690;2024-03-08T12:03:34;6.12;74.62
68609;SHT31;55581;46.718;7.690;2024-03-08T12:06:00;6.34;75.14
68609;SHT31;55581;46.718;7.690;2024-03-08T12:08:27;6.66;73.64
68609;SHT31;55581;46.718;7.690;2024-03-08T12:10:54;6.91;72.92
68609;SHT31;55581;46.718;7.690;2024-03-08T12:13:26;6.89;72.01
68609;SHT31;55581;46.718;7.690;2024-03-08T12:15:58;7.11;73.01
68609;SHT31;55581;46.718;7.690;2024-03-08T12:18:27;7.19;72.55
68609;SHT31;55581;46.718;7.690;2024-03-08T12:21:07;7.30;72.10
68609;SHT31;55581;46.718;7.690;2024-03-08T12:23:34;7.05;73.07
68609;SHT31;55581;46.718;7.690;2024-03-08T12:26:25;7.29;72.23
68609;SHT31;55581;46.718;7.690;2024-03-08T12:28:52;7.12;71.64
68609;SHT31;55581;46.718;7.690;2024-03-08T12:31:18;7.01;70.40
68609;SHT31;55581;46.718;7.690;2024-03-08T12:36:18;7.06;71.81
68609;SHT31;55581;46.718;7.690;2024-03-08T12:38:45;7.01;70.70
68609;SHT31;55581;46.718;7.690;2024-03-08T12:41:15;6.88;72.30
68609;SHT31;55581;46.718;7.690;2024-03-08T12:43:40;6.84;74.22
68609;SHT31;55581;46.718;7.690;2024-03-08T12:46:06;6.95;74.37
68609;SHT31;55581;46.718;7.690;2024-03-08T12:48:37;6.98;72.66
68609;SHT31;55581;46.718;7.690;2024-03-08T12:51:06;6.67;74.00
68609;SHT31;55581;46.718;7.690;2024-03-08T12:53:32;6.53;73.21
68609;SHT31;55581;46.718;7.690;2024-03-08T12:55:58;6.51;74.09
68609;SHT31;55581;46.718;7.690;2024-03-08T12:58:24;6.37;74.48
68609;SHT31;55581;46.718;7.690;2024-03-08T13:00:53;6.37;75.05
68609;SHT31;55581;46.718;7.690;2024-03-08T13:03:21;6.53;74.81
68609;SHT31;55581;46.718;7.690;2024-03-08T13:05:50;6.56;72.85
68609;SHT31;55581;46.718;7.690;2024-03-08T13:08:15;6.73;72.97
68609;SHT31;55581;46.718;7.690;2024-03-08T13:10:43;6.94;72.23
68609;SHT31;55581;46.718;7.690;2024-03-08T13:13:11;7.22;72.47
68609;SHT31;55581;46.718;7.690;2024-03-08T13:15:40;7.39;72.12
68609;SHT31;55581;46.718;7.690;2024-03-08T13:18:06;7.32;70.58
68609;SHT31;55581;46.718;7.690;2024-03-08T13:20:36;7.73;69.71
68609;SHT31;55581;46.718;7.690;2024-03-08T13:23:04;7.82;68.89
68609;SHT31;55581;46.718;7.690;2024-03-08T13:25:33;8.01;68.24
68609;SHT31;55581;46.718;7.690;2024-03-08T13:27:58;8.16;68.83
68609;SHT31;55581;46.718;7.690;2024-03-08T13:30:26;8.33;68.93
68609;SHT31;55581;46.718;7.690;2024-03-08T13:32:52;8.46;68.80
68609;SHT31;55581;46.718;7.690;2024-03-08T13:35:19;8.42;65.87
68609;SHT31;55581;46.718;7.690;2024-03-08T13:37:50;8.70;67.69
68609;SHT31;55581;46.718;7.690;2024-03-08T13:40:18;8.61;68.45
68609;SHT31;55581;46.718;7.690;2024-03-08T13:42:46;8.65;69.29
68609;SHT31;55581;46.718;7.690;2024-03-08T13:45:12;8.53;69.38
68609;SHT31;55581;46.718;7.690;2024-03-08T13:47:39;8.68;70.10
68609;SHT31;55581;46.718;7.690;2024-03-08T13:50:06;9.07;67.56
68609;SHT31;55581;46.718;7.690;2024-03-08T13:52:37;8.99;67.51
68609;SHT31;55581;46.718;7.690;2024-03-08T13:55:07;9.40;68.83
68609;SHT31;55581;46.718;7.690;2024-03-08T13:57:33;9.16;68.92
68609;SHT31;55581;46.718;7.690;2024-03-08T13:59:59;9.27;67.74
68609;SHT31;55581;46.718;7.690;2024-03-08T14:02:25;9.19;65.93
68609;SHT31;55581;46.718;7.690;2024-03-08T14:04:55;8.91;67.46
68609;SHT31;55581;46.718;7.690;2024-03-08T14:07:21;9.04;66.16
68609;SHT31;55581;46.718;7.690;2024-03-08T14:09:46;9.15;66.04
68609;SHT31;55581;46.718;7.690;2024-03-08T14:12:11;9.32;66.06
68609;SHT31;55581;46.718;7.690;2024-03-08T14:14:38;9.61;66.34
68609;SHT31;55581;46.718;7.690;2024-03-08T14:17:04;9.67;64.58
68609;SHT31;55581;46.718;7.690;2024-03-08T14:19:34;10.01;64.17
68609;SHT31;55581;46.718;7.690;2024-03-08T14:22:00;10.09;65.24
68609;SHT31;55581;46.718;7.690;2024-03-08T14:24:32;10.15;65.33
68609;SHT31;55581;46.718;7.690;2024-03-08T14:27:01;9.92;64.36
68609;SHT31;55581;46.718;7.690;2024-03-08T14:29:29;10.13;65.13
68609;SHT31;55581;46.718;7.690;2024-03-08T14:31:58;10.11;64.58
68609;SHT31;55581;46.718;7.690;2024-03-08T14:34:27;9.99;64.01
68609;SHT31;55581;46.718;7.690;2024-03-08T14:36:54;9.92;63.73
68609;SHT31;55581;46.718;7.690;2024-03-08T14:39:20;9.88;64.04
68609;SHT31;55581;46.718;7.690;2024-03-08T14:41:50;9.67;64.49
68609;SHT31;55581;46.718;7.690;2024-03-08T14:44:20;9.82;64.44
68609;SHT31;55581;46.718;7.690;2024-03-08T14:46:46;9.97;67.21
68609;SHT31;55581;46.718;7.690;2024-03-08T14:49:12;10.08;64.92
68609;SHT31;55581;46.718;7.690;2024-03-08T14:51:37;10.33;64.75
68609;SHT31;55581;46.718;7.690;2024-03-08T14:54:03;10.20;65.46
68609;SHT31;55581;46.718;7.690;2024-03-08T14:56:32;10.13;65.72
68609;SHT31;55581;46.718;7.690;2024-03-08T14:58:58;9.88;67.09
68609;SHT31;55581;46.718;7.690;2024-03-08T15:01:25;9.65;66.93
68609;SHT31;55581;46.718;7.690;2024-03-08T15:03:57;9.60;67.35
68609;SHT31;55581;46.718;7.690;2024-03-08T15:06:28;9.65;67.46
68609;SHT31;55581;46.718;7.690;2024-03-08T15:08:56;9.64;67.28
68609;SHT31;55581;46.718;7.690;2024-03-08T15:11:23;9.65;68.13
68609;SHT31;55581;46.718;7.690;2024-03-08T15:13:50;9.53;68.69
68609;SHT31;55581;46.718;7.690;2024-03-08T15:16:17;9.65;69.27
68609;SHT31;55581;46.718;7.690;2024-03-08T15:18:43;9.77;68.68
68609;SHT31;55581;46.718;7.690;2024-03-08T15:21:13;9.81;67.23
68609;SHT31;55581;46.718;7.690;2024-03-08T15:23:44;9.87;67.45
68609;SHT31;55581;46.718;7.690;2024-03-08T15:26:15;9.74;66.97
68609;SHT31;55581;46.718;7.690;2024-03-08T15:28:44;9.88;68.29
68609;SHT31;55581;46.718;7.690;2024-03-08T15:31:11;9.74;68.05
68609;SHT31;55581;46.718;7.690;2024-03-08T15:33:39;9.65;68.69
68609;SHT31;55581;46.718;7.690;2024-03-08T15:36:13;9.44;69.03
68609;SHT31;55581;46.718;7.690;2024-03-08T15:38:43;9.30;70.54
68609;SHT31;55581;46.718;7.690;2024-03-08T15:41:12;9.32;69.77
68609;SHT31;55581;46.718;7.690;2024-03-08T15:43:39;9.15;69.77
68609;SHT31;55581;46.718;7.690;2024-03-08T15:46:05;9.16;70.30
68609;SHT31;55581;46.718;7.690;2024-03-08T15:48:32;9.26;70.37
68609;SHT31;55581;46.718;7.690;2024-03-08T15:50:59;9.46;70.76
68609;SHT31;55581;46.718;7.690;2024-03-08T15:53:31;9.09;71.00
68609;SHT31;55581;46.718;7.690;2024-03-08T15:56:00;8.98;72.27
68609;SHT31;55581;46.718;7.690;2024-03-08T15:58:26;8.84;72.46